Time;durP1;ratioP1;P1;durP2;ratioP2;P2;SDS_P1;SDS_P2;PMS_P1;PMS_P2;Temp;Humidity;BMP_temperature;BMP_pressure;BME280_temperature;BME280_humidity;BME280_pressure;Samples;Min_cycle;Max_cycle;Signal;HPM_P1;HPM_P2
2021/05/01 00:02:10;;;;;;;1.33;0.50;;;9.70;99.90;;;;;;5061884;28;20551;-82
2021/05/01 00:04:36;;;;;;;0.57;0.57;;;9.60;99.90;;;;;;5085202;28;20246;-83
2021/05/01 00:07:02;;;;;;;0.60;0.60;;;9.50;99.90;;;;;;5087306;28;20656;-83
2021/05/01 00:09:31;;;;;;;1.47;0.70;;;9.40;99.90;;;;;;5092359;28;20191;-83
2021/05/01 00:11:56;;;;;;;0.73;0.73;;;9.40;99.90;;;;;;5068744;28;20213;-82
2021/05/01 00:14:25;;;;;;;0.50;0.50;;;9.00;99.90;;;;;;5062607;28;20550;-83
2021/05/01 00:16:51;;;;;;;0.50;0.50;;;8.80;99.90;;;;;;5072794;28;20176;-82
2021/05/01 00:19:17;;;;;;;0.50;0.50;;;8.70;99.90;;;;;;5065000;28;20232;-82
2021/05/01 00:21:42;;;;;;;0.47;0.47;;;8.60;99.90;;;;;;5085441;28;20690;-83
2021/05/01 00:24:08;;;;;;;0.43;0.27;;;8.60;99.90;;;;;;5065047;28;20232;-83
2021/05/01 00:26:33;;;;;;;0.50;0.50;;;8.60;99.90;;;;;;5071735;28;20187;-82
2021/05/01 00:28:59;;;;;;;0.40;0.40;;;8.70;99.90;;;;;;5062422;28;20194;-82
2021/05/01 00:31:26;;;;;;;0.50;0.50;;;8.80;99.90;;;;;;5079388;28;20606;-82
2021/05/01 00:33:52;;;;;;;1.27;0.90;;;8.80;99.90;;;;;;5060160;28;20176;-84
2021/05/01 00:36:17;;;;;;;3.33;0.77;;;8.90;99.90;;;;;;5065559;28;20187;-82
2021/05/01 00:38:44;;;;;;;0.60;0.37;;;8.90;99.90;;;;;;5087476;28;20187;-82
2021/05/01 00:41:10;;;;;;;2.63;0.90;;;8.90;99.90;;;;;;5088564;28;20246;-85
2021/05/01 00:43:39;;;;;;;1.00;1.00;;;8.80;99.90;;;;;;5063453;28;20277;-86
2021/05/01 00:46:05;;;;;;;0.20;0.20;;;8.80;99.90;;;;;;5080263;28;20240;-87
2021/05/01 00:48:34;;;;;;;0.60;0.60;;;8.90;99.90;;;;;;5065131;28;20191;-84
2021/05/01 00:51:01;;;;;;;0.60;0.60;;;8.60;99.90;;;;;;5085453;28;20208;-86
2021/05/01 00:53:26;;;;;;;0.43;0.43;;;8.60;99.90;;;;;;5064432;28;20187;-83
2021/05/01 00:55:53;;;;;;;0.70;0.70;;;8.50;99.90;;;;;;5067434;28;20178;-83
2021/05/01 00:58:20;;;;;;;0.43;0.43;;;8.30;99.90;;;;;;5070753;28;20236;-83
2021/05/01 01:03:33;;;;;;;0.97;0.63;;;8.20;99.90;;;;;;5083731;28;20217;-82
2021/05/01 01:05:59;;;;;;;1.03;0.93;;;8.00;99.90;;;;;;5075443;28;20185;-83
2021/05/01 01:08:25;;;;;;;1.13;0.90;;;7.90;99.90;;;;;;5055895;28;20182;-82
2021/05/01 01:10:53;;;;;;;0.37;0.37;;;8.00;99.90;;;;;;5080804;28;20238;-82
2021/05/01 01:13:19;;;;;;;1.20;0.73;;;8.10;99.90;;;;;;5062274;28;20182;-82
2021/05/01 01:15:44;;;;;;;0.43;0.30;;;7.90;99.90;;;;;;5078491;28;20183;-82
2021/05/01 01:18:10;;;;;;;1.33;1.10;;;7.80;99.90;;;;;;5068620;28;20182;-82
2021/05/01 01:20:36;;;;;;;1.07;0.77;;;8.00;99.90;;;;;;5063910;28;20199;-83
2021/05/01 01:23:01;;;;;;;0.50;0.50;;;7.90;99.90;;;;;;5073600;28;20670;-82
2021/05/01 01:25:28;;;;;;;1.10;1.00;;;7.80;99.90;;;;;;5066834;28;20183;-82
2021/05/01 01:27:54;;;;;;;1.77;0.97;;;7.70;99.90;;;;;;5077688;28;20181;-82
2021/05/01 01:30:25;;;;;;;1.30;0.67;;;7.70;99.90;;;;;;5067652;28;20208;-82
2021/05/01 01:32:51;;;;;;;1.10;0.50;;;7.80;99.90;;;;;;5065083;28;20291;-82
2021/05/01 01:35:17;;;;;;;0.33;0.33;;;7.80;99.90;;;;;;5088188;28;20179;-82
2021/05/01 01:37:45;;;;;;;1.43;1.03;;;7.80;99.90;;;;;;5061958;28;20192;-82
2021/05/01 01:40:12;;;;;;;0.43;0.43;;;7.80;99.90;;;;;;5089774;28;20273;-82
2021/05/01 01:42:40;;;;;;;0.70;0.70;;;7.80;99.90;;;;;;5067403;28;20217;-82
2021/05/01 01:45:07;;;;;;;0.80;0.80;;;7.80;99.90;;;;;;5062013;28;20192;-83
2021/05/01 01:47:33;;;;;;;2.10;1.40;;;7.70;99.90;;;;;;5081390;28;20185;-82
2021/05/01 01:49:58;;;;;;;1.00;0.53;;;7.60;99.90;;;;;;5054791;28;20188;-83
2021/05/01 01:52:24;;;;;;;1.40;1.30;;;7.60;99.90;;;;;;5075554;28;20268;-82
2021/05/01 01:54:50;;;;;;;0.53;0.50;;;7.50;99.90;;;;;;5063616;28;20174;-82
2021/05/01 01:57:16;;;;;;;0.80;0.80;;;7.50;99.90;;;;;;5060784;28;20254;-82
2021/05/01 01:59:43;;;;;;;0.60;0.57;;;7.40;99.90;;;;;;5092303;28;20187;-82
2021/05/01 02:02:08;;;;;;;0.60;0.60;;;7.30;99.90;;;;;;5078663;28;20232;-82
2021/05/01 02:04:34;;;;;;;0.57;0.57;;;7.20;99.90;;;;;;5059561;28;20188;-82
2021/05/01 02:07:00;;;;;;;0.63;0.50;;;7.10;99.90;;;;;;5081435;28;20185;-82
2021/05/01 02:09:26;;;;;;;0.70;0.63;;;7.00;99.90;;;;;;5077800;28;20178;-82
2021/05/01 02:11:52;;;;;;;0.47;0.47;;;6.90;99.90;;;;;;5064492;28;20675;-83
2021/05/01 02:14:18;;;;;;;0.50;0.43;;;6.80;99.90;;;;;;5061377;28;20184;-82
2021/05/01 02:16:43;;;;;;;0.93;0.43;;;6.70;99.90;;;;;;5066630;28;20179;-83
2021/05/01 02:19:09;;;;;;;0.33;0.33;;;6.60;99.90;;;;;;5071950;28;20180;-82
2021/05/01 02:21:35;;;;;;;0.40;0.40;;;6.70;99.90;;;;;;5072087;28;20295;-82
2021/05/01 02:24:00;;;;;;;0.90;0.90;;;6.70;99.90;;;;;;5084610;28;20335;-82
2021/05/01 02:26:26;;;;;;;1.20;1.10;;;6.70;99.90;;;;;;5064581;28;20248;-82
2021/05/01 02:28:52;;;;;;;1.97;0.87;;;6.60;99.90;;;;;;5068137;28;20579;-82
2021/05/01 02:31:18;;;;;;;0.87;0.87;;;6.60;99.90;;;;;;5074217;28;20613;-82
2021/05/01 02:33:44;;;;;;;1.43;0.60;;;6.50;99.90;;;;;;5066926;28;20239;-82
2021/05/01 02:36:09;;;;;;;0.80;0.73;;;6.50;99.90;;;;;;5090254;28;20181;-82
2021/05/01 02:38:35;;;;;;;1.07;0.83;;;6.50;99.90;;;;;;5090362;28;20176;-82
2021/05/01 02:41:00;;;;;;;1.60;0.80;;;6.60;99.90;;;;;;5073071;28;20209;-82
2021/05/01 02:43:26;;;;;;;0.27;0.27;;;6.70;99.90;;;;;;5066080;28;20185;-82
2021/05/01 02:45:52;;;;;;;0.60;0.60;;;6.80;99.90;;;;;;5080946;28;20234;-82
2021/05/01 02:48:17;;;;;;;1.03;0.60;;;6.90;99.90;;;;;;5071101;28;20192;-82
2021/05/01 02:50:43;;;;;;;0.43;0.43;;;7.00;99.90;;;;;;5071259;28;20273;-82
2021/05/01 02:53:12;;;;;;;0.47;0.47;;;7.00;99.90;;;;;;5076528;28;20206;-83
2021/05/01 02:55:37;;;;;;;0.30;0.30;;;7.10;99.90;;;;;;5075286;28;20184;-82
2021/05/01 02:58:03;;;;;;;0.30;0.30;;;7.10;99.90;;;;;;5090834;28;20264;-82
2021/05/01 03:00:29;;;;;;;0.30;0.30;;;7.10;99.90;;;;;;5074229;28;20319;-82
2021/05/01 03:02:55;;;;;;;0.73;0.50;;;7.10;99.90;;;;;;5069916;28;20324;-82
2021/05/01 03:05:21;;;;;;;1.00;0.90;;;7.10;99.90;;;;;;5089560;28;20184;-82
2021/05/01 03:07:47;;;;;;;0.37;0.27;;;7.00;99.90;;;;;;5068181;28;20275;-82
2021/05/01 03:10:15;;;;;;;0.53;0.37;;;6.90;99.90;;;;;;5065294;28;20621;-82
2021/05/01 03:12:41;;;;;;;1.33;0.57;;;6.80;99.90;;;;;;5075863;28;20205;-83
2021/05/01 03:15:10;;;;;;;0.33;0.33;;;6.70;99.90;;;;;;5064900;28;20246;-82
2021/05/01 03:17:35;;;;;;;0.20;0.20;;;6.70;99.90;;;;;;5078090;28;20182;-83
2021/05/01 03:20:03;;;;;;;0.57;0.53;;;6.70;99.90;;;;;;5083303;28;20196;-81
2021/05/01 03:22:28;;;;;;;0.93;0.60;;;6.60;99.90;;;;;;5095018;28;20189;-82
2021/05/01 03:24:54;;;;;;;0.83;0.77;;;6.50;99.90;;;;;;5075720;28;20193;-83
2021/05/01 03:27:21;;;;;;;0.47;0.40;;;6.50;99.90;;;;;;5091091;28;20180;-82
2021/05/01 03:29:47;;;;;;;2.10;0.40;;;6.60;99.90;;;;;;5079799;28;20304;-82
2021/05/01 03:32:12;;;;;;;0.40;0.40;;;6.70;99.90;;;;;;5064254;28;20343;-82
2021/05/01 03:34:38;;;;;;;0.73;0.73;;;6.80;99.90;;;;;;5067903;28;20206;-82
2021/05/01 03:37:04;;;;;;;0.47;0.47;;;6.70;99.90;;;;;;5072410;28;20200;-81
2021/05/01 03:39:29;;;;;;;0.70;0.70;;;6.40;99.90;;;;;;5079592;28;20698;-81
2021/05/01 03:41:55;;;;;;;3.03;0.97;;;6.20;99.90;;;;;;5064948;28;20218;-81
2021/05/01 03:44:20;;;;;;;0.53;0.53;;;6.00;99.90;;;;;;5074132;28;20670;-82
2021/05/01 03:46:46;;;;;;;0.60;0.60;;;5.90;99.90;;;;;;5074384;28;20653;-82
2021/05/01 03:49:12;;;;;;;0.10;0.10;;;5.80;99.90;;;;;;5064134;28;20187;-81
2021/05/01 03:51:37;;;;;;;0.20;0.20;;;5.80;99.90;;;;;;5085227;28;20741;-81
2021/05/01 03:54:03;;;;;;;0.67;0.40;;;5.80;99.90;;;;;;5081785;28;20190;-82
2021/05/01 03:56:32;;;;;;;0.20;0.20;;;5.80;99.90;;;;;;5087595;28;20237;-81
2021/05/01 03:58:57;;;;;;;0.30;0.30;;;6.00;99.90;;;;;;5073944;28;20175;-82
2021/05/01 04:01:23;;;;;;;0.63;0.63;;;5.90;99.90;;;;;;5075126;28;20197;-81
2021/05/01 04:03:48;;;;;;;0.30;0.30;;;5.90;99.90;;;;;;5079425;28;20194;-82
2021/05/01 04:06:19;;;;;;;0.50;0.50;;;5.80;99.90;;;;;;5065601;28;20197;-82
2021/05/01 04:08:45;;;;;;;0.40;0.40;;;5.70;99.90;;;;;;5080645;28;20181;-82
2021/05/01 04:11:11;;;;;;;0.47;0.47;;;5.60;99.90;;;;;;5065471;28;20402;-81
2021/05/01 04:13:47;;;;;;;1.00;0.40;;;5.60;99.90;;;;;;5093280;28;20201;-83
2021/05/01 04:16:16;;;;;;;0.60;0.60;;;5.80;99.90;;;;;;5071123;28;20176;-86
2021/05/01 04:18:43;;;;;;;0.50;0.40;;;5.70;99.90;;;;;;5064860;28;20177;-81
2021/05/01 04:21:09;;;;;;;0.23;0.23;;;5.70;99.90;;;;;;5061013;28;20212;-79
2021/05/01 04:23:35;;;;;;;0.20;0.20;;;5.60;99.90;;;;;;5061815;28;20177;-80
2021/05/01 04:26:01;;;;;;;0.70;0.57;;;5.60;99.90;;;;;;5080644;28;20665;-80
2021/05/01 04:28:28;;;;;;;0.47;0.47;;;5.60;99.90;;;;;;5055109;28;20231;-80
2021/05/01 04:30:54;;;;;;;1.17;1.17;;;5.60;99.90;;;;;;5060723;28;20288;-81
2021/05/01 04:33:20;;;;;;;0.37;0.37;;;5.50;99.90;;;;;;5056978;28;20268;-80
2021/05/01 04:35:45;;;;;;;2.67;1.07;;;5.40;99.90;;;;;;5054788;28;20264;-79
2021/05/01 04:38:11;;;;;;;0.20;0.20;;;5.40;99.90;;;;;;5058440;28;20188;-80
2021/05/01 04:40:37;;;;;;;0.30;0.30;;;5.50;99.90;;;;;;5082621;28;20213;-80
2021/05/01 04:43:05;;;;;;;0.40;0.30;;;5.50;99.90;;;;;;5057145;28;20762;-80
2021/05/01 04:45:30;;;;;;;0.40;0.40;;;5.50;99.90;;;;;;5056015;28;20196;-80
2021/05/01 04:47:56;;;;;;;0.30;0.30;;;5.70;99.90;;;;;;5092673;28;20640;-79
2021/05/01 04:50:22;;;;;;;0.43;0.43;;;5.80;99.90;;;;;;5071263;28;20217;-80
2021/05/01 04:52:47;;;;;;;0.40;0.40;;;5.90;99.90;;;;;;5074213;28;20235;-80
2021/05/01 04:55:13;;;;;;;1.30;0.63;;;6.00;99.90;;;;;;5083513;28;20196;-80
2021/05/01 04:57:41;;;;;;;0.20;0.20;;;6.10;99.90;;;;;;5065712;28;20531;-80
2021/05/01 05:00:08;;;;;;;0.90;0.30;;;6.20;99.90;;;;;;5083299;28;20185;-80
2021/05/01 05:02:33;;;;;;;0.40;0.40;;;6.20;99.90;;;;;;5083043;28;20192;-80
2021/05/01 05:04:59;;;;;;;0.70;0.57;;;6.00;99.90;;;;;;5062401;28;20906;-80
2021/05/01 05:07:24;;;;;;;0.93;0.67;;;5.80;99.90;;;;;;5061895;28;20694;-80
2021/05/01 05:09:50;;;;;;;0.27;0.20;;;5.80;99.90;;;;;;5088733;28;20181;-80
2021/05/01 05:12:15;;;;;;;0.60;0.60;;;5.70;99.90;;;;;;5080804;28;20223;-80
2021/05/01 05:14:41;;;;;;;0.20;0.20;;;5.70;99.90;;;;;;5076274;28;20181;-80
2021/05/01 05:17:07;;;;;;;0.30;0.30;;;5.80;99.90;;;;;;5053767;28;20668;-83
2021/05/01 05:19:32;;;;;;;1.07;0.50;;;6.00;99.90;;;;;;5062753;28;20922;-84
2021/05/01 05:21:58;;;;;;;0.10;0.10;;;6.00;99.90;;;;;;5055661;28;20500;-84
2021/05/01 05:24:23;;;;;;;0.33;0.33;;;6.20;99.90;;;;;;5064000;28;20236;-82
2021/05/01 05:26:49;;;;;;;0.50;0.50;;;6.30;99.90;;;;;;5062257;28;20227;-79
2021/05/01 05:29:14;;;;;;;0.20;0.20;;;6.40;99.90;;;;;;5070816;28;20189;-80
2021/05/01 05:31:40;;;;;;;0.10;0.10;;;6.50;99.90;;;;;;5057056;28;20213;-79
2021/05/01 05:34:05;;;;;;;1.90;0.50;;;6.70;99.90;;;;;;5054233;28;20218;-79
2021/05/01 05:36:31;;;;;;;0.53;0.50;;;6.90;99.90;;;;;;5078372;28;20272;-80
2021/05/01 05:38:57;;;;;;;0.40;0.40;;;7.10;99.90;;;;;;5072341;28;20214;-80
2021/05/01 05:41:24;;;;;;;0.73;0.57;;;7.30;99.90;;;;;;5062668;28;20209;-80
2021/05/01 05:43:50;;;;;;;0.10;0.10;;;7.60;99.90;;;;;;5072315;28;20188;-80
2021/05/01 05:46:17;;;;;;;0.43;0.40;;;7.80;99.90;;;;;;5062411;28;20565;-82
2021/05/01 05:48:43;;;;;;;0.30;0.30;;;8.00;99.90;;;;;;5091110;28;20274;-83
2021/05/01 05:51:09;;;;;;;1.87;0.60;;;8.00;99.90;;;;;;5072078;28;20688;-84
2021/05/01 05:53:35;;;;;;;0.90;0.90;;;7.90;99.90;;;;;;5071390;28;20200;-82
2021/05/01 05:56:01;;;;;;;0.57;0.30;;;7.80;99.90;;;;;;5058155;28;20224;-84
2021/05/01 05:58:27;;;;;;;1.07;0.83;;;8.00;99.90;;;;;;5063903;28;20215;-85
2021/05/01 06:00:52;;;;;;;0.47;0.43;;;8.10;99.90;;;;;;5092875;28;20738;-84
2021/05/01 06:03:20;;;;;;;0.70;0.70;;;8.20;99.90;;;;;;5084996;28;20189;-81
2021/05/01 06:05:51;;;;;;;0.20;0.20;;;8.50;99.90;;;;;;5058271;28;20671;-79
2021/05/01 06:08:17;;;;;;;0.23;0.23;;;8.80;99.90;;;;;;5063171;28;20599;-80
2021/05/01 06:10:44;;;;;;;0.63;0.63;;;9.10;99.90;;;;;;5075285;28;20330;-81
2021/05/01 06:13:12;;;;;;;0.43;0.40;;;9.30;99.90;;;;;;5071892;28;20669;-81
2021/05/01 06:15:37;;;;;;;0.20;0.20;;;9.50;99.90;;;;;;5062518;28;20185;-80
2021/05/01 06:18:05;;;;;;;0.47;0.17;;;9.60;99.90;;;;;;5093743;28;20266;-81
2021/05/01 06:20:32;;;;;;;1.90;0.73;;;9.70;99.90;;;;;;5100081;28;20225;-80
2021/05/01 06:23:02;;;;;;;0.67;0.67;;;9.70;99.90;;;;;;5077480;28;20275;-81
2021/05/01 06:25:28;;;;;;;0.40;0.40;;;9.90;99.90;;;;;;5080712;28;20185;-82
2021/05/01 06:27:54;;;;;;;0.40;0.40;;;9.90;99.90;;;;;;5104215;28;20178;-82
2021/05/01 06:30:21;;;;;;;0.73;0.60;;;10.10;99.90;;;;;;5067567;28;20203;-82
2021/05/01 06:32:48;;;;;;;0.83;0.83;;;10.30;99.90;;;;;;5081655;28;20213;-82
2021/05/01 06:35:14;;;;;;;0.30;0.30;;;10.30;99.90;;;;;;5074930;28;20182;-83
2021/05/01 06:37:40;;;;;;;0.57;0.57;;;10.50;99.90;;;;;;5074664;28;20188;-82
2021/05/01 06:40:14;;;;;;;0.20;0.20;;;10.70;99.90;;;;;;5066027;28;20181;-82
2021/05/01 06:42:46;;;;;;;0.57;0.57;;;10.80;99.90;;;;;;5084730;28;20191;-82
2021/05/01 06:45:14;;;;;;;0.30;0.30;;;11.00;99.90;;;;;;5088845;28;20223;-82
2021/05/01 06:47:52;;;;;;;1.17;0.40;;;11.10;99.90;;;;;;5079200;28;20263;-81
2021/05/01 06:50:24;;;;;;;1.00;0.87;;;11.10;99.90;;;;;;5080959;28;20203;-82
2021/05/01 06:52:50;;;;;;;0.80;0.50;;;11.00;99.90;;;;;;5076910;28;20628;-81
2021/05/01 06:55:18;;;;;;;0.33;0.33;;;11.20;99.90;;;;;;5076222;28;20709;-81
2021/05/01 06:57:48;;;;;;;0.87;0.77;;;11.50;99.90;;;;;;5066234;28;20180;-83
2021/05/01 07:00:16;;;;;;;1.90;0.97;;;11.60;99.90;;;;;;5068710;28;20181;-81
2021/05/01 07:02:50;;;;;;;1.00;0.90;;;11.90;99.90;;;;;;5081270;28;20214;-82
2021/05/01 07:05:20;;;;;;;1.07;1.07;;;12.30;99.90;;;;;;5073929;28;20585;-82
2021/05/01 07:07:46;;;;;;;1.97;1.10;;;12.60;99.90;;;;;;5100012;28;20196;-82
2021/05/01 07:10:13;;;;;;;1.60;1.23;;;12.80;99.90;;;;;;5075463;28;20207;-83
2021/05/01 07:12:40;;;;;;;0.50;0.30;;;13.10;99.90;;;;;;5075405;28;20711;-83
2021/05/01 07:15:11;;;;;;;0.20;0.20;;;13.40;99.90;;;;;;5078347;28;20175;-83
2021/05/01 07:17:38;;;;;;;0.53;0.53;;;12.90;99.90;;;;;;5082150;28;20545;-83
2021/05/01 07:20:08;;;;;;;0.47;0.47;;;13.20;99.90;;;;;;5069074;28;20271;-83
2021/05/01 07:22:34;;;;;;;1.60;0.90;;;13.50;99.90;;;;;;5063639;28;20193;-83
2021/05/01 07:25:03;;;;;;;2.73;0.90;;;13.70;99.90;;;;;;5071204;28;20220;-83
2021/05/01 07:27:36;;;;;;;0.67;0.67;;;14.00;99.90;;;;;;5073627;28;20221;-84
2021/05/01 07:30:04;;;;;;;1.87;1.20;;;14.00;99.90;;;;;;5074337;28;20190;-83
2021/05/01 07:32:35;;;;;;;2.30;1.17;;;13.60;99.90;;;;;;5098522;28;20306;-84
2021/05/01 07:35:07;;;;;;;0.27;0.27;;;13.60;99.90;;;;;;5091993;28;20676;-84
2021/05/01 07:37:36;;;;;;;1.70;1.03;;;14.00;99.90;;;;;;5079637;28;20596;-83
2021/05/01 07:40:05;;;;;;;1.60;1.53;;;14.30;99.90;;;;;;5098742;28;20221;-83
2021/05/01 07:42:43;;;;;;;3.13;1.73;;;14.40;99.90;;;;;;5072341;28;20659;-83
2021/05/01 07:45:13;;;;;;;1.37;1.07;;;12.90;99.90;;;;;;5093111;28;20184;-83
2021/05/01 07:47:41;;;;;;;0.73;0.60;;;12.70;99.90;;;;;;5083436;28;20191;-83
2021/05/01 07:50:08;;;;;;;1.37;0.77;;;13.30;99.90;;;;;;5070470;28;20181;-84
2021/05/01 07:52:35;;;;;;;1.87;1.30;;;13.80;99.90;;;;;;5064292;28;20204;-84
2021/05/01 07:55:02;;;;;;;2.00;1.80;;;14.00;99.90;;;;;;5060060;28;20191;-82
2021/05/01 07:57:27;;;;;;;3.97;2.90;;;13.30;99.90;;;;;;5070151;28;20550;-82
2021/05/01 07:59:53;;;;;;;4.10;2.57;;;12.90;99.90;;;;;;5068494;28;20183;-82
2021/05/01 08:02:18;;;;;;;3.13;1.60;;;12.50;99.90;;;;;;5063015;28;20200;-82
2021/05/01 08:04:44;;;;;;;2.53;1.20;;;12.50;99.90;;;;;;5065826;28;20187;-82
2021/05/01 08:07:10;;;;;;;1.30;0.83;;;13.50;99.90;;;;;;5066290;28;21129;-81
2021/05/01 08:09:37;;;;;;;4.10;1.57;;;14.00;99.90;;;;;;5031932;28;21772;-83
2021/05/01 08:12:03;;;;;;;2.13;1.73;;;14.40;99.90;;;;;;5053890;28;20252;-81
2021/05/01 08:14:28;;;;;;;1.97;1.27;;;14.80;99.90;;;;;;5074637;28;20236;-81
2021/05/01 08:16:54;;;;;;;1.57;1.17;;;14.80;99.90;;;;;;5078566;28;20218;-84
2021/05/01 08:19:21;;;;;;;1.87;1.30;;;14.80;99.90;;;;;;5055102;28;20183;-82
2021/05/01 08:21:46;;;;;;;1.57;1.47;;;14.40;99.90;;;;;;5053989;28;20204;-83
2021/05/01 08:24:12;;;;;;;4.97;2.27;;;14.30;99.90;;;;;;5056632;28;20552;-82
2021/05/01 08:26:38;;;;;;;2.57;1.23;;;14.20;99.90;;;;;;5063493;28;20223;-83
2021/05/01 08:29:04;;;;;;;2.30;1.73;;;14.20;99.90;;;;;;5072553;28;20193;-83
2021/05/01 08:31:29;;;;;;;3.70;1.63;;;14.30;99.90;;;;;;5057574;28;20210;-81
2021/05/01 08:33:56;;;;;;;1.73;1.27;;;14.60;99.90;;;;;;5084104;28;20180;-83
2021/05/01 08:36:22;;;;;;;0.93;0.93;;;14.70;99.90;;;;;;5079976;28;20643;-81
2021/05/01 08:38:47;;;;;;;2.73;1.37;;;14.80;99.90;;;;;;5066374;28;20174;-82
2021/05/01 08:41:13;;;;;;;2.73;1.90;;;14.00;99.90;;;;;;5060242;28;20748;-83
2021/05/01 08:43:39;;;;;;;3.03;1.90;;;14.00;99.90;;;;;;5081462;28;20194;-83
2021/05/01 08:46:14;;;;;;;3.93;1.83;;;13.70;99.90;;;;;;5067123;28;20687;-83
2021/05/01 08:48:44;;;;;;;0.77;0.77;;;13.70;99.90;;;;;;5060061;28;20488;-83
2021/05/01 08:51:10;;;;;;;4.10;1.93;;;14.30;99.90;;;;;;5057487;28;20207;-83
2021/05/01 08:53:36;;;;;;;1.77;1.47;;;14.80;99.90;;;;;;5083479;28;20277;-83
2021/05/01 08:56:01;;;;;;;1.80;1.70;;;14.50;99.90;;;;;;5058438;28;20185;-82
2021/05/01 08:58:27;;;;;;;1.83;1.73;;;14.70;99.90;;;;;;5074441;28;20195;-82
2021/05/01 09:00:52;;;;;;;2.30;2.13;;;15.00;99.90;;;;;;5073716;28;20196;-82
2021/05/01 09:03:21;;;;;;;2.07;1.83;;;14.80;99.90;;;;;;5064757;28;20533;-80
2021/05/01 09:05:47;;;;;;;3.77;1.60;;;14.40;99.90;;;;;;5082785;28;20185;-82
2021/05/01 09:08:13;;;;;;;3.00;2.33;;;14.90;99.90;;;;;;5056937;28;20188;-81
2021/05/01 09:10:43;;;;;;;2.30;1.30;;;14.40;99.90;;;;;;5059785;28;20211;-82
2021/05/01 09:13:28;;;;;;;2.87;1.77;;;14.10;99.90;;;;;;5053530;28;20227;-80
2021/05/01 09:16:02;;;;;;;2.53;1.50;;;14.60;99.90;;;;;;5057094;28;20260;-83
2021/05/01 09:19:08;;;;;;;1.47;1.37;;;15.00;99.90;;;;;;5061128;28;20188;-83
2021/05/01 09:21:34;;;;;;;3.53;2.17;;;15.30;99.90;;;;;;5050682;28;20680;-83
2021/05/01 09:24:00;;;;;;;4.37;1.77;;;14.40;99.90;;;;;;5074697;28;20218;-83
2021/05/01 09:26:41;;;;;;;5.30;1.20;;;14.50;99.90;;;;;;5075524;28;20187;-82
2021/05/01 09:29:06;;;;;;;1.17;1.07;;;15.10;99.90;;;;;;5085880;28;20188;-83
2021/05/01 09:31:48;;;;;;;1.30;0.97;;;15.50;99.90;;;;;;5063666;28;20216;-83
2021/05/01 09:34:13;;;;;;;4.97;1.80;;;15.50;99.90;;;;;;5061983;28;20187;-83
2021/05/01 09:36:40;;;;;;;2.27;1.83;;;14.80;99.90;;;;;;5063773;28;20180;-83
2021/05/01 09:39:14;;;;;;;4.80;2.40;;;14.90;99.90;;;;;;5083332;28;20177;-83
2021/05/01 09:41:42;;;;;;;5.40;2.07;;;14.40;99.90;;;;;;5088892;28;20234;-82
2021/05/01 09:44:10;;;;;;;1.90;1.60;;;13.60;99.90;;;;;;5082304;28;20188;-81
2021/05/01 09:46:39;;;;;;;2.93;2.10;;;13.90;99.90;;;;;;5085120;28;20184;-83
2021/05/01 09:49:29;;;;;;;0.50;0.50;;;14.50;99.90;;;;;;5085251;28;20190;-83
2021/05/01 09:51:57;;;;;;;1.53;1.07;;;14.90;99.90;;;;;;5058913;28;20228;-82
2021/05/01 09:54:33;;;;;;;1.00;0.80;;;15.20;99.90;;;;;;5063272;28;20310;-83
2021/05/01 09:57:04;;;;;;;1.17;0.70;;;15.60;99.90;;;;;;5068760;28;20670;-80
2021/05/01 09:59:40;;;;;;;6.50;1.60;;;15.30;99.90;;;;;;5085926;28;20207;-79
2021/05/01 10:02:09;;;;;;;2.83;2.63;;;15.30;99.90;;;;;;5079158;28;20618;-79
2021/05/01 10:04:36;;;;;;;0.53;0.50;;;15.90;99.90;;;;;;5090091;28;20653;-80
2021/05/01 10:07:12;;;;;;;1.57;1.10;;;16.00;99.90;;;;;;5069723;28;20246;-80
2021/05/01 10:09:39;;;;;;;0.97;0.83;;;16.40;99.90;;;;;;5065861;28;20184;-80
2021/05/01 10:12:14;;;;;;;1.73;1.30;;;16.40;99.90;;;;;;5068957;28;20265;-80
2021/05/01 10:14:47;;;;;;;1.93;1.33;;;16.20;99.90;;;;;;5090273;28;20183;-80
2021/05/01 10:17:17;;;;;;;1.00;0.83;;;15.60;99.90;;;;;;5092106;28;20208;-80
2021/05/01 10:19:50;;;;;;;0.90;0.67;;;15.60;99.90;;;;;;5072490;28;20241;-80
2021/05/01 10:22:26;;;;;;;1.00;1.00;;;15.70;99.90;;;;;;5063823;28;20207;-80
2021/05/01 10:24:53;;;;;;;0.77;0.63;;;16.10;99.90;;;;;;5066920;28;20216;-80
2021/05/01 10:27:19;;;;;;;3.40;1.60;;;16.30;99.90;;;;;;5064841;28;20934;-79
2021/05/01 10:29:58;;;;;;;1.43;1.10;;;16.20;99.90;;;;;;5085276;28;20587;-78
2021/05/01 10:32:32;;;;;;;2.90;1.57;;;16.30;99.90;;;;;;5066181;28;20348;-80
2021/05/01 10:34:59;;;;;;;1.13;1.07;;;15.60;99.90;;;;;;5070442;28;20680;-81
2021/05/01 10:37:31;;;;;;;2.30;1.13;;;15.50;99.90;;;;;;5091631;28;20323;-81
2021/05/01 10:39:58;;;;;;;1.50;1.40;;;15.00;99.90;;;;;;5064480;28;20187;-80
2021/05/01 10:42:24;;;;;;;0.77;0.77;;;15.30;99.90;;;;;;5076535;28;20656;-80
2021/05/01 10:44:57;;;;;;;3.33;1.43;;;15.40;99.90;;;;;;5073858;28;20546;-78
2021/05/01 10:47:23;;;;;;;2.10;1.83;;;15.40;99.90;;;;;;5067178;28;20188;-78
2021/05/01 10:49:49;;;;;;;4.83;2.47;;;14.70;99.90;;;;;;5083481;28;20676;-80
2021/05/01 10:52:19;;;;;;;1.47;0.97;;;14.90;99.90;;;;;;5094948;28;20220;-80
2021/05/01 10:55:01;;;;;;;1.93;1.27;;;15.00;99.90;;;;;;5072524;28;20194;-80
2021/05/01 10:57:28;;;;;;;0.83;0.83;;;15.10;99.90;;;;;;5094578;28;20172;-80
2021/05/01 11:00:06;;;;;;;1.33;1.23;;;15.30;99.90;;;;;;5097540;28;20178;-79
2021/05/01 11:02:36;;;;;;;1.10;1.07;;;15.30;99.90;;;;;;5098685;28;20229;-80
2021/05/01 11:05:05;;;;;;;0.83;0.83;;;15.40;99.90;;;;;;5077799;28;20184;-80
2021/05/01 11:07:47;;;;;;;1.07;0.93;;;15.20;99.90;;;;;;5074144;28;20652;-81
2021/05/01 11:10:15;;;;;;;2.43;1.40;;;15.40;99.90;;;;;;5099445;28;20664;-80
2021/05/01 11:12:49;;;;;;;2.00;1.00;;;15.50;99.90;;;;;;5102617;28;20215;-80
2021/05/01 11:15:15;;;;;;;3.50;0.80;;;15.60;99.90;;;;;;5077575;28;20649;-80
2021/05/01 11:17:41;;;;;;;1.30;1.07;;;15.70;99.90;;;;;;5070642;28;20187;-81
2021/05/01 11:20:16;;;;;;;0.70;0.70;;;15.80;99.90;;;;;;5089212;28;20675;-80
2021/05/01 11:22:44;;;;;;;2.47;1.83;;;15.50;99.90;;;;;;5064598;28;20209;-82
2021/05/01 11:25:13;;;;;;;1.40;1.33;;;15.20;99.90;;;;;;5091822;28;20182;-82
2021/05/01 11:27:41;;;;;;;0.73;0.73;;;15.50;99.90;;;;;;5090169;28;20374;-80
2021/05/01 11:30:09;;;;;;;2.53;1.83;;;15.70;99.90;;;;;;5062117;28;20187;-79
2021/05/01 11:32:36;;;;;;;3.00;1.73;;;15.50;99.90;;;;;;5061659;28;20255;-80
2021/05/01 11:35:09;;;;;;;0.80;0.80;;;15.50;99.90;;;;;;5064670;28;20177;-81
2021/05/01 11:37:42;;;;;;;1.60;1.50;;;15.20;99.90;;;;;;5076463;28;20213;-81
2021/05/01 11:40:10;;;;;;;2.17;2.00;;;15.80;99.90;;;;;;5074341;28;20267;-80
2021/05/01 11:42:38;;;;;;;1.60;1.43;;;15.60;99.90;;;;;;5088588;28;20598;-80
2021/05/01 11:45:09;;;;;;;3.47;2.63;;;15.40;99.90;;;;;;5064649;28;20281;-78
2021/05/01 11:47:38;;;;;;;2.13;1.47;;;14.90;99.90;;;;;;5092363;28;20183;-81
2021/05/01 11:50:04;;;;;;;1.30;1.10;;;15.70;99.90;;;;;;5062966;28;20188;-80
2021/05/01 11:53:09;;;;;;;0.87;0.87;;;16.20;99.90;;;;;;5076551;28;20580;-81
2021/05/01 11:56:04;;;;;;;1.13;1.13;;;16.50;99.90;;;;;;5086064;28;20256;-79
2021/05/01 11:58:33;;;;;;;1.77;1.57;;;16.60;99.90;;;;;;5075657;28;20203;-81
2021/05/01 12:01:17;;;;;;;1.37;1.23;;;16.80;99.90;;;;;;5074882;28;20235;-81
2021/05/01 12:04:01;;;;;;;1.20;1.00;;;16.70;99.90;;;;;;5092423;28;20710;-81
2021/05/01 12:06:29;;;;;;;1.97;1.50;;;16.60;99.90;;;;;;5078710;28;20190;-80
2021/05/01 12:09:27;;;;;;;4.67;2.90;;;16.80;99.90;;;;;;5076582;28;20207;-80
2021/05/01 12:11:56;;;;;;;2.90;2.57;;;16.40;99.90;;;;;;5088511;28;20239;-80
2021/05/01 12:14:27;;;;;;;2.13;1.50;;;16.60;99.90;;;;;;5080294;28;20544;-81
2021/05/01 12:17:17;;;;;;;2.83;1.50;;;16.60;99.90;;;;;;5089857;28;20185;-81
2021/05/01 12:19:47;;;;;;;1.97;1.67;;;15.50;99.90;;;;;;5069339;28;20659;-80
2021/05/01 12:22:27;;;;;;;2.77;2.23;;;15.30;99.90;;;;;;5074424;28;20204;-80
2021/05/01 12:24:52;;;;;;;2.17;1.87;;;15.10;99.90;;;;;;5068345;28;20192;-80
2021/05/01 12:27:51;;;;;;;2.37;1.37;;;15.10;99.90;;;;;;5081034;28;20277;-81
2021/05/01 12:30:43;;;;;;;3.13;1.67;;;15.60;99.90;;;;;;5080016;28;20173;-81
2021/05/01 12:33:23;;;;;;;0.97;0.87;;;15.80;99.90;;;;;;5094799;28;20208;-79
2021/05/01 12:36:03;;;;;;;2.33;1.97;;;16.10;99.90;;;;;;5095357;28;20180;-81
2021/05/01 12:38:32;;;;;;;4.17;3.77;;;15.10;99.90;;;;;;5083776;28;20187;-81
2021/05/01 12:41:07;;;;;;;5.50;2.27;;;15.30;99.90;;;;;;5064089;28;20196;-81
2021/05/01 12:43:32;;;;;;;1.57;1.13;;;14.80;99.90;;;;;;5072450;28;20557;-81
2021/05/01 12:46:13;;;;;;;0.87;0.70;;;15.50;99.90;;;;;;5099018;28;20195;-81
2021/05/01 12:48:49;;;;;;;1.33;0.90;;;16.20;99.90;;;;;;5085409;28;20228;-81
2021/05/01 12:51:29;;;;;;;1.67;1.47;;;16.20;99.90;;;;;;5069832;28;20210;-81
2021/05/01 12:53:57;;;;;;;1.40;1.20;;;15.50;99.90;;;;;;5064208;28;20192;-80
2021/05/01 12:56:27;;;;;;;2.37;1.50;;;15.80;99.90;;;;;;5076171;28;20200;-81
2021/05/01 12:59:22;;;;;;;1.73;0.93;;;15.60;99.90;;;;;;5076240;28;20185;-81
2021/05/01 13:01:53;;;;;;;1.17;1.00;;;15.90;99.90;;;;;;5069841;28;20212;-80
2021/05/01 13:04:21;;;;;;;2.17;1.93;;;15.60;99.90;;;;;;5077375;28;20606;-80